sensor_id;sensor_type;location;lat;lon;timestamp;temperature;humidity
65985;HTU21D;52748;51.112;5.880;2023-04-24T00:00:56;21.32;57.71
65985;HTU21D;52748;51.112;5.880;2023-04-24T00:03:23;21.31;57.64
65985;HTU21D;52748;51.112;5.880;2023-04-24T00:05:49;21.30;57.58
65985;HTU21D;52748;51.112;5.880;2023-04-24T00:08:17;21.30;57.52
65985;HTU21D;52748;51.112;5.880;2023-04-24T00:10:43;21.30;57.61
65985;HTU21D;52748;51.112;5.880;2023-04-24T00:13:09;21.29;57.70
65985;HTU21D;52748;51.112;5.880;2023-04-24T00:15:34;21.28;57.70
65985;HTU21D;52748;51.112;5.880;2023-04-24T00:18:00;21.27;57.70
65985;HTU21D;52748;51.112;5.880;2023-04-24T00:20:27;21.28;57.67
65985;HTU21D;52748;51.112;5.880;2023-04-24T00:22:57;21.27;57.63
65985;HTU21D;52748;51.112;5.880;2023-04-24T00:25:23;21.25;57.67
65985;HTU21D;52748;51.112;5.880;2023-04-24T00:27:49;21.25;57.72
65985;HTU21D;52748;51.112;5.880;2023-04-24T00:30:15;21.25;57.69
65985;HTU21D;52748;51.112;5.880;2023-04-24T00:32:41;21.27;57.69
65985;HTU21D;52748;51.112;5.880;2023-04-24T00:35:07;21.27;57.62
65985;HTU21D;52748;51.112;5.880;2023-04-24T00:37:33;21.25;57.65
65985;HTU21D;52748;51.112;5.880;2023-04-24T00:39:59;21.24;57.58
65985;HTU21D;52748;51.112;5.880;2023-04-24T00:42:25;21.23;57.60
65985;HTU21D;52748;51.112;5.880;2023-04-24T00:44:51;21.23;57.65
65985;HTU21D;52748;51.112;5.880;2023-04-24T00:47:18;21.21;57.68
65985;HTU21D;52748;51.112;5.880;2023-04-24T00:49:44;21.23;57.61
65985;HTU21D;52748;51.112;5.880;2023-04-24T00:52:10;21.22;57.61
65985;HTU21D;52748;51.112;5.880;2023-04-24T00:54:37;21.20;57.67
65985;HTU21D;52748;51.112;5.880;2023-04-24T00:57:04;21.20;57.61
65985;HTU21D;52748;51.112;5.880;2023-04-24T00:59:31;21.21;57.50
65985;HTU21D;52748;51.112;5.880;2023-04-24T01:01:58;21.20;57.54
65985;HTU21D;52748;51.112;5.880;2023-04-24T01:04:24;21.19;57.50
65985;HTU21D;52748;51.112;5.880;2023-04-24T01:06:51;21.19;57.46
65985;HTU21D;52748;51.112;5.880;2023-04-24T01:09:19;21.19;57.46
65985;HTU21D;52748;51.112;5.880;2023-04-24T01:11:46;21.19;57.58
65985;HTU21D;52748;51.112;5.880;2023-04-24T01:14:13;21.17;57.64
65985;HTU21D;52748;51.112;5.880;2023-04-24T01:16:38;21.17;57.63
65985;HTU21D;52748;51.112;5.880;2023-04-24T01:19:06;21.18;57.63
65985;HTU21D;52748;51.112;5.880;2023-04-24T01:21:37;21.18;57.55
65985;HTU21D;52748;51.112;5.880;2023-04-24T01:24:04;21.17;57.47
65985;HTU21D;52748;51.112;5.880;2023-04-24T01:26:30;21.17;57.48
65985;HTU21D;52748;51.112;5.880;2023-04-24T01:28:57;21.17;57.52
65985;HTU21D;52748;51.112;5.880;2023-04-24T01:31:23;21.17;57.52
65985;HTU21D;52748;51.112;5.880;2023-04-24T01:33:49;21.17;57.50
65985;HTU21D;52748;51.112;5.880;2023-04-24T01:36:16;21.18;57.42
65985;HTU21D;52748;51.112;5.880;2023-04-24T01:38:42;21.17;57.39
65985;HTU21D;52748;51.112;5.880;2023-04-24T01:41:08;21.17;57.41
65985;HTU21D;52748;51.112;5.880;2023-04-24T01:43:33;21.15;57.42
65985;HTU21D;52748;51.112;5.880;2023-04-24T01:45:59;21.16;57.41
65985;HTU21D;52748;51.112;5.880;2023-04-24T01:48:26;21.16;57.45
65985;HTU21D;52748;51.112;5.880;2023-04-24T01:50:52;21.16;57.42
65985;HTU21D;52748;51.112;5.880;2023-04-24T01:53:18;21.15;57.45
65985;HTU21D;52748;51.112;5.880;2023-04-24T01:55:44;21.14;57.39
65985;HTU21D;52748;51.112;5.880;2023-04-24T01:58:12;21.15;57.39
65985;HTU21D;52748;51.112;5.880;2023-04-24T02:00:38;21.13;57.41
65985;HTU21D;52748;51.112;5.880;2023-04-24T02:03:03;21.13;57.37
65985;HTU21D;52748;51.112;5.880;2023-04-24T02:05:29;21.14;57.35
65985;HTU21D;52748;51.112;5.880;2023-04-24T02:07:55;21.14;57.26
65985;HTU21D;52748;51.112;5.880;2023-04-24T02:10:21;21.15;57.27
65985;HTU21D;52748;51.112;5.880;2023-04-24T02:12:47;21.13;57.26
65985;HTU21D;52748;51.112;5.880;2023-04-24T02:15:13;21.11;57.27
65985;HTU21D;52748;51.112;5.880;2023-04-24T02:17:39;21.13;57.29
65985;HTU21D;52748;51.112;5.880;2023-04-24T02:20:06;21.11;57.29
65985;HTU21D;52748;51.112;5.880;2023-04-24T02:22:32;21.10;57.26
65985;HTU21D;52748;51.112;5.880;2023-04-24T02:25:01;21.11;57.25
65985;HTU21D;52748;51.112;5.880;2023-04-24T02:27:27;21.10;57.25
65985;HTU21D;52748;51.112;5.880;2023-04-24T02:29:53;21.09;57.24
65985;HTU21D;52748;51.112;5.880;2023-04-24T02:32:18;21.10;57.26
65985;HTU21D;52748;51.112;5.880;2023-04-24T02:34:44;21.09;57.31
65985;HTU21D;52748;51.112;5.880;2023-04-24T02:37:11;21.09;57.31
65985;HTU21D;52748;51.112;5.880;2023-04-24T02:39:37;21.09;57.24
65985;HTU21D;52748;51.112;5.880;2023-04-24T02:42:03;21.09;57.16
65985;HTU21D;52748;51.112;5.880;2023-04-24T02:44:29;21.08;57.19
65985;HTU21D;52748;51.112;5.880;2023-04-24T02:46:55;21.09;57.24
65985;HTU21D;52748;51.112;5.880;2023-04-24T02:49:22;21.07;57.16
65985;HTU21D;52748;51.112;5.880;2023-04-24T02:51:48;21.08;57.19
65985;HTU21D;52748;51.112;5.880;2023-04-24T02:54:14;21.07;57.18
65985;HTU21D;52748;51.112;5.880;2023-04-24T02:56:40;21.07;57.20
65985;HTU21D;52748;51.112;5.880;2023-04-24T02:59:07;21.08;57.19
65985;HTU21D;52748;51.112;5.880;2023-04-24T03:01:33;21.07;57.08
65985;HTU21D;52748;51.112;5.880;2023-04-24T03:03:59;21.05;57.08
65985;HTU21D;52748;51.112;5.880;2023-04-24T03:06:24;21.07;57.07
65985;HTU21D;52748;51.112;5.880;2023-04-24T03:08:53;21.06;57.13
65985;HTU21D;52748;51.112;5.880;2023-04-24T03:11:19;21.06;57.09
65985;HTU21D;52748;51.112;5.880;2023-04-24T03:13:45;21.06;56.98
65985;HTU21D;52748;51.112;5.880;2023-04-24T03:16:11;21.06;56.97
65985;HTU21D;52748;51.112;5.880;2023-04-24T03:18:37;21.06;57.00
65985;HTU21D;52748;51.112;5.880;2023-04-24T03:21:04;21.05;56.95
65985;HTU21D;52748;51.112;5.880;2023-04-24T03:23:32;21.04;56.99
65985;HTU21D;52748;51.112;5.880;2023-04-24T03:25:57;21.05;56.97
65985;HTU21D;52748;51.112;5.880;2023-04-24T03:28:24;21.04;57.00
65985;HTU21D;52748;51.112;5.880;2023-04-24T03:30:58;21.04;57.00
65985;HTU21D;52748;51.112;5.880;2023-04-24T03:33:25;21.03;57.07
65985;HTU21D;52748;51.112;5.880;2023-04-24T03:35:59;21.03;56.96
65985;HTU21D;52748;51.112;5.880;2023-04-24T03:38:25;21.03;56.95
65985;HTU21D;52748;51.112;5.880;2023-04-24T03:41:00;21.03;56.87
65985;HTU21D;52748;51.112;5.880;2023-04-24T03:43:40;21.02;56.87
65985;HTU21D;52748;51.112;5.880;2023-04-24T03:46:06;21.02;56.91
65985;HTU21D;52748;51.112;5.880;2023-04-24T03:48:38;21.01;56.94
65985;HTU21D;52748;51.112;5.880;2023-04-24T03:51:05;21.01;56.96
65985;HTU21D;52748;51.112;5.880;2023-04-24T03:53:32;21.01;56.96
65985;HTU21D;52748;51.112;5.880;2023-04-24T03:55:58;21.00;56.93
65985;HTU21D;52748;51.112;5.880;2023-04-24T03:58:24;21.00;56.87
65985;HTU21D;52748;51.112;5.880;2023-04-24T04:00:51;20.99;56.88
65985;HTU21D;52748;51.112;5.880;2023-04-24T04:03:35;20.99;56.88
65985;HTU21D;52748;51.112;5.880;2023-04-24T04:06:01;20.99;56.85
65985;HTU21D;52748;51.112;5.880;2023-04-24T04:08:27;20.98;56.87
65985;HTU21D;52748;51.112;5.880;2023-04-24T04:10:53;20.99;56.88
65985;HTU21D;52748;51.112;5.880;2023-04-24T04:13:19;20.98;56.89
65985;HTU21D;52748;51.112;5.880;2023-04-24T04:15:45;20.98;56.82
65985;HTU21D;52748;51.112;5.880;2023-04-24T04:18:11;20.96;56.84
65985;HTU21D;52748;51.112;5.880;2023-04-24T04:20:38;20.98;56.87
65985;HTU21D;52748;51.112;5.880;2023-04-24T04:23:03;20.96;56.90
65985;HTU21D;52748;51.112;5.880;2023-04-24T04:25:40;20.96;56.87
65985;HTU21D;52748;51.112;5.880;2023-04-24T04:28:06;20.98;56.75
65985;HTU21D;52748;51.112;5.880;2023-04-24T04:30:32;20.98;56.75
65985;HTU21D;52748;51.112;5.880;2023-04-24T04:33:02;20.99;56.69
65985;HTU21D;52748;51.112;5.880;2023-04-24T04:35:28;20.99;56.67
65985;HTU21D;52748;51.112;5.880;2023-04-24T04:37:54;20.98;56.61
65985;HTU21D;52748;51.112;5.880;2023-04-24T04:40:41;20.98;56.68
65985;HTU21D;52748;51.112;5.880;2023-04-24T04:43:07;20.98;56.66
65985;HTU21D;52748;51.112;5.880;2023-04-24T04:45:42;20.98;56.63
65985;HTU21D;52748;51.112;5.880;2023-04-24T04:48:34;20.96;56.71
65985;HTU21D;52748;51.112;5.880;2023-04-24T04:51:02;20.95;56.75
65985;HTU21D;52748;51.112;5.880;2023-04-24T04:53:28;20.95;56.68
65985;HTU21D;52748;51.112;5.880;2023-04-24T04:55:54;20.95;56.68
65985;HTU21D;52748;51.112;5.880;2023-04-24T04:58:23;20.96;56.61
65985;HTU21D;52748;51.112;5.880;2023-04-24T05:00:54;20.96;56.55
65985;HTU21D;52748;51.112;5.880;2023-04-24T05:03:27;20.95;56.56
65985;HTU21D;52748;51.112;5.880;2023-04-24T05:05:59;20.95;56.62
65985;HTU21D;52748;51.112;5.880;2023-04-24T05:08:26;20.93;56.64
65985;HTU21D;52748;51.112;5.880;2023-04-24T05:10:52;20.93;56.59
65985;HTU21D;52748;51.112;5.880;2023-04-24T05:13:18;20.92;56.60
65985;HTU21D;52748;51.112;5.880;2023-04-24T05:15:44;20.93;56.64
65985;HTU21D;52748;51.112;5.880;2023-04-24T05:18:09;20.92;56.67
65985;HTU21D;52748;51.112;5.880;2023-04-24T05:20:36;20.93;56.71
65985;HTU21D;52748;51.112;5.880;2023-04-24T05:23:02;20.94;56.71
65985;HTU21D;52748;51.112;5.880;2023-04-24T05:25:29;20.93;56.74
65985;HTU21D;52748;51.112;5.880;2023-04-24T05:28:02;20.93;56.61
65985;HTU21D;52748;51.112;5.880;2023-04-24T05:30:28;20.93;56.64
65985;HTU21D;52748;51.112;5.880;2023-04-24T05:32:54;20.92;56.59
65985;HTU21D;52748;51.112;5.880;2023-04-24T05:35:20;20.94;56.55
65985;HTU21D;52748;51.112;5.880;2023-04-24T05:37:46;20.92;56.60
65985;HTU21D;52748;51.112;5.880;2023-04-24T05:40:12;20.92;56.76
65985;HTU21D;52748;51.112;5.880;2023-04-24T05:42:38;20.93;56.74
65985;HTU21D;52748;51.112;5.880;2023-04-24T05:45:04;20.91;56.75
65985;HTU21D;52748;51.112;5.880;2023-04-24T05:47:31;20.92;56.82
65985;HTU21D;52748;51.112;5.880;2023-04-24T05:49:57;20.92;56.85
65985;HTU21D;52748;51.112;5.880;2023-04-24T05:52:23;20.91;56.84
65985;HTU21D;52748;51.112;5.880;2023-04-24T05:54:49;20.91;56.93
65985;HTU21D;52748;51.112;5.880;2023-04-24T05:57:20;20.92;56.84
65985;HTU21D;52748;51.112;5.880;2023-04-24T05:59:51;20.92;56.86
65985;HTU21D;52748;51.112;5.880;2023-04-24T06:02:19;20.91;56.85
65985;HTU21D;52748;51.112;5.880;2023-04-24T06:04:45;20.89;56.81
65985;HTU21D;52748;51.112;5.880;2023-04-24T06:07:11;20.90;56.88
65985;HTU21D;52748;51.112;5.880;2023-04-24T06:09:38;20.90;56.96
65985;HTU21D;52748;51.112;5.880;2023-04-24T06:12:04;20.89;56.92
65985;HTU21D;52748;51.112;5.880;2023-04-24T06:14:44;20.91;56.94
65985;HTU21D;52748;51.112;5.880;2023-04-24T06:17:17;20.89;56.92
65985;HTU21D;52748;51.112;5.880;2023-04-24T06:19:45;20.87;56.59
65985;HTU21D;52748;51.112;5.880;2023-04-24T06:22:10;20.83;55.06
65985;HTU21D;52748;51.112;5.880;2023-04-24T06:24:36;20.78;54.04
65985;HTU21D;52748;51.112;5.880;2023-04-24T06:27:02;20.71;54.93
65985;HTU21D;52748;51.112;5.880;2023-04-24T06:29:28;20.70;55.96
65985;HTU21D;52748;51.112;5.880;2023-04-24T06:31:54;20.59;55.93
65985;HTU21D;52748;51.112;5.880;2023-04-24T06:34:20;20.45;55.58
65985;HTU21D;52748;51.112;5.880;2023-04-24T06:36:46;20.34;56.79
65985;HTU21D;52748;51.112;5.880;2023-04-24T06:39:12;20.31;57.48
65985;HTU21D;52748;51.112;5.880;2023-04-24T06:41:38;20.28;56.90
65985;HTU21D;52748;51.112;5.880;2023-04-24T06:44:05;20.24;56.05
65985;HTU21D;52748;51.112;5.880;2023-04-24T06:46:31;20.20;56.43
65985;HTU21D;52748;51.112;5.880;2023-04-24T06:48:57;20.17;56.19
65985;HTU21D;52748;51.112;5.880;2023-04-24T06:51:23;20.14;56.38
65985;HTU21D;52748;51.112;5.880;2023-04-24T06:53:49;20.13;56.79
65985;HTU21D;52748;51.112;5.880;2023-04-24T06:56:15;20.09;55.79
65985;HTU21D;52748;51.112;5.880;2023-04-24T06:58:41;20.04;56.96
65985;HTU21D;52748;51.112;5.880;2023-04-24T07:01:07;20.05;58.87
65985;HTU21D;52748;51.112;5.880;2023-04-24T07:03:33;20.03;59.93
65985;HTU21D;52748;51.112;5.880;2023-04-24T07:05:59;20.05;60.38
65985;HTU21D;52748;51.112;5.880;2023-04-24T07:08:25;20.05;60.60
65985;HTU21D;52748;51.112;5.880;2023-04-24T07:10:51;20.07;60.92
65985;HTU21D;52748;51.112;5.880;2023-04-24T07:13:16;20.10;61.22
65985;HTU21D;52748;51.112;5.880;2023-04-24T07:15:43;20.12;61.31
65985;HTU21D;52748;51.112;5.880;2023-04-24T07:18:09;20.16;61.47
65985;HTU21D;52748;51.112;5.880;2023-04-24T07:20:35;20.19;61.51
65985;HTU21D;52748;51.112;5.880;2023-04-24T07:23:00;20.24;61.19
65985;HTU21D;52748;51.112;5.880;2023-04-24T07:25:26;20.21;61.27
65985;HTU21D;52748;51.112;5.880;2023-04-24T07:27:53;20.21;61.28
65985;HTU21D;52748;51.112;5.880;2023-04-24T07:30:19;20.18;61.48
65985;HTU21D;52748;51.112;5.880;2023-04-24T07:32:45;20.20;61.86
65985;HTU21D;52748;51.112;5.880;2023-04-24T07:35:10;20.21;61.98
65985;HTU21D;52748;51.112;5.880;2023-04-24T07:37:36;20.24;62.10
65985;HTU21D;52748;51.112;5.880;2023-04-24T07:40:02;20.24;62.17
65985;HTU21D;52748;51.112;5.880;2023-04-24T07:42:29;20.25;62.31
65985;HTU21D;52748;51.112;5.880;2023-04-24T07:44:56;20.25;62.12
65985;HTU21D;52748;51.112;5.880;2023-04-24T07:47:22;20.25;61.96
65985;HTU21D;52748;51.112;5.880;2023-04-24T07:49:48;20.26;61.86
65985;HTU21D;52748;51.112;5.880;2023-04-24T07:52:13;20.31;61.76
65985;HTU21D;52748;51.112;5.880;2023-04-24T07:54:39;20.32;61.68
65985;HTU21D;52748;51.112;5.880;2023-04-24T07:57:05;20.34;61.79
65985;HTU21D;52748;51.112;5.880;2023-04-24T07:59:32;20.34;61.91
65985;HTU21D;52748;51.112;5.880;2023-04-24T08:01:58;20.35;61.95
65985;HTU21D;52748;51.112;5.880;2023-04-24T08:04:23;20.36;61.96
65985;HTU21D;52748;51.112;5.880;2023-04-24T08:06:49;20.35;62.05
65985;HTU21D;52748;51.112;5.880;2023-04-24T08:09:15;20.37;62.34
65985;HTU21D;52748;51.112;5.880;2023-04-24T08:11:41;20.39;62.24
65985;HTU21D;52748;51.112;5.880;2023-04-24T08:14:06;20.39;62.08
65985;HTU21D;52748;51.112;5.880;2023-04-24T08:16:33;20.41;62.12
65985;HTU21D;52748;51.112;5.880;2023-04-24T08:18:59;20.41;62.50
65985;HTU21D;52748;51.112;5.880;2023-04-24T08:21:24;20.44;62.39
65985;HTU21D;52748;51.112;5.880;2023-04-24T08:23:52;20.42;62.45
65985;HTU21D;52748;51.112;5.880;2023-04-24T08:26:18;20.43;62.50
65985;HTU21D;52748;51.112;5.880;2023-04-24T08:28:44;20.43;59.65
65985;HTU21D;52748;51.112;5.880;2023-04-24T08:31:10;20.26;58.80
65985;HTU21D;52748;51.112;5.880;2023-04-24T08:33:35;20.09;60.22
65985;HTU21D;52748;51.112;5.880;2023-04-24T08:36:05;19.97;60.84
65985;HTU21D;52748;51.112;5.880;2023-04-24T08:38:31;19.88;60.89
65985;HTU21D;52748;51.112;5.880;2023-04-24T08:41:00;19.83;63.45
65985;HTU21D;52748;51.112;5.880;2023-04-24T08:43:26;19.81;65.04
65985;HTU21D;52748;51.112;5.880;2023-04-24T08:45:56;19.79;65.99
65985;HTU21D;52748;51.112;5.880;2023-04-24T08:48:22;19.76;66.25
65985;HTU21D;52748;51.112;5.880;2023-04-24T08:50:50;19.76;66.45
65985;HTU21D;52748;51.112;5.880;2023-04-24T08:53:16;19.76;66.44
65985;HTU21D;52748;51.112;5.880;2023-04-24T08:55:47;19.77;66.84
65985;HTU21D;52748;51.112;5.880;2023-04-24T08:58:13;19.80;66.73
65985;HTU21D;52748;51.112;5.880;2023-04-24T09:00:40;19.84;65.74
65985;HTU21D;52748;51.112;5.880;2023-04-24T09:03:09;19.87;65.43
65985;HTU21D;52748;51.112;5.880;2023-04-24T09:05:36;19.87;65.10
65985;HTU21D;52748;51.112;5.880;2023-04-24T09:08:04;19.86;64.90
65985;HTU21D;52748;51.112;5.880;2023-04-24T09:10:31;19.86;64.72
65985;HTU21D;52748;51.112;5.880;2023-04-24T09:12:59;19.89;64.31
65985;HTU21D;52748;51.112;5.880;2023-04-24T09:15:27;19.91;64.01
65985;HTU21D;52748;51.112;5.880;2023-04-24T09:17:53;19.90;64.84
65985;HTU21D;52748;51.112;5.880;2023-04-24T09:20:19;19.89;66.97
65985;HTU21D;52748;51.112;5.880;2023-04-24T09:22:45;19.91;66.45
65985;HTU21D;52748;51.112;5.880;2023-04-24T09:25:11;19.94;67.07
65985;HTU21D;52748;51.112;5.880;2023-04-24T09:27:45;19.95;68.97
65985;HTU21D;52748;51.112;5.880;2023-04-24T09:30:11;20.00;69.99
65985;HTU21D;52748;51.112;5.880;2023-04-24T09:32:37;20.06;70.25
65985;HTU21D;52748;51.112;5.880;2023-04-24T09:35:14;20.10;68.80
65985;HTU21D;52748;51.112;5.880;2023-04-24T09:37:47;20.09;64.30
65985;HTU21D;52748;51.112;5.880;2023-04-24T09:40:19;20.04;64.60
65985;HTU21D;52748;51.112;5.880;2023-04-24T09:42:55;20.03;65.15
65985;HTU21D;52748;51.112;5.880;2023-04-24T09:45:21;20.04;66.00
65985;HTU21D;52748;51.112;5.880;2023-04-24T09:47:51;20.04;65.90
65985;HTU21D;52748;51.112;5.880;2023-04-24T09:50:17;20.07;65.78
65985;HTU21D;52748;51.112;5.880;2023-04-24T09:52:56;20.14;65.39
65985;HTU21D;52748;51.112;5.880;2023-04-24T09:55:22;20.17;65.05
65985;HTU21D;52748;51.112;5.880;2023-04-24T09:57:49;20.18;64.89
65985;HTU21D;52748;51.112;5.880;2023-04-24T10:00:26;20.19;64.95
65985;HTU21D;52748;51.112;5.880;2023-04-24T10:03:00;20.20;64.74
65985;HTU21D;52748;51.112;5.880;2023-04-24T10:05:35;20.19;64.73
65985;HTU21D;52748;51.112;5.880;2023-04-24T10:08:04;20.22;64.83
65985;HTU21D;52748;51.112;5.880;2023-04-24T10:10:37;20.21;65.30
65985;HTU21D;52748;51.112;5.880;2023-04-24T10:13:04;20.20;65.66
65985;HTU21D;52748;51.112;5.880;2023-04-24T10:15:30;20.21;66.07
65985;HTU21D;52748;51.112;5.880;2023-04-24T10:17:58;20.21;66.83
65985;HTU21D;52748;51.112;5.880;2023-04-24T10:20:27;20.24;67.44
65985;HTU21D;52748;51.112;5.880;2023-04-24T10:22:55;20.29;66.93
65985;HTU21D;52748;51.112;5.880;2023-04-24T10:25:24;20.32;66.68
65985;HTU21D;52748;51.112;5.880;2023-04-24T10:27:52;20.33;66.35
65985;HTU21D;52748;51.112;5.880;2023-04-24T10:30:19;20.33;66.47
65985;HTU21D;52748;51.112;5.880;2023-04-24T10:32:46;20.33;67.10
65985;HTU21D;52748;51.112;5.880;2023-04-24T10:35:13;20.36;67.15
65985;HTU21D;52748;51.112;5.880;2023-04-24T10:37:58;20.41;67.07
65985;HTU21D;52748;51.112;5.880;2023-04-24T10:40:34;20.41;66.62
65985;HTU21D;52748;51.112;5.880;2023-04-24T10:43:03;20.44;66.26
65985;HTU21D;52748;51.112;5.880;2023-04-24T10:45:31;20.45;65.79
65985;HTU21D;52748;51.112;5.880;2023-04-24T10:47:58;20.46;65.91
65985;HTU21D;52748;51.112;5.880;2023-04-24T10:50:26;20.43;65.91
65985;HTU21D;52748;51.112;5.880;2023-04-24T10:52:53;20.42;66.18
65985;HTU21D;52748;51.112;5.880;2023-04-24T10:58:06;20.36;66.37
65985;HTU21D;52748;51.112;5.880;2023-04-24T11:00:32;20.34;66.53
65985;HTU21D;52748;51.112;5.880;2023-04-24T11:03:05;20.33;66.63
65985;HTU21D;52748;51.112;5.880;2023-04-24T11:08:39;20.32;66.40
65985;HTU21D;52748;51.112;5.880;2023-04-24T11:11:09;20.30;64.42
65985;HTU21D;52748;51.112;5.880;2023-04-24T11:18:59;20.32;66.43
65985;HTU21D;52748;51.112;5.880;2023-04-24T11:22:16;20.36;66.61
65985;HTU21D;52748;51.112;5.880;2023-04-24T11:26:54;20.40;66.66
65985;HTU21D;52748;51.112;5.880;2023-04-24T11:29:21;20.41;66.75
65985;HTU21D;52748;51.112;5.880;2023-04-24T11:31:47;20.42;66.75
65985;HTU21D;52748;51.112;5.880;2023-04-24T11:34:18;20.43;66.58
65985;HTU21D;52748;51.112;5.880;2023-04-24T11:36:45;20.44;66.54
65985;HTU21D;52748;51.112;5.880;2023-04-24T11:39:12;20.46;66.64
65985;HTU21D;52748;51.112;5.880;2023-04-24T11:41:38;20.45;66.69
65985;HTU21D;52748;51.112;5.880;2023-04-24T11:44:07;20.47;66.85
65985;HTU21D;52748;51.112;5.880;2023-04-24T11:46:33;20.48;66.58
65985;HTU21D;52748;51.112;5.880;2023-04-24T11:48:59;20.49;66.47
65985;HTU21D;52748;51.112;5.880;2023-04-24T11:51:27;20.49;66.45
65985;HTU21D;52748;51.112;5.880;2023-04-24T11:53:56;20.51;66.27
65985;HTU21D;52748;51.112;5.880;2023-04-24T11:56:23;20.53;66.16
65985;HTU21D;52748;51.112;5.880;2023-04-24T11:58:52;20.53;66.10
65985;HTU21D;52748;51.112;5.880;2023-04-24T12:01:19;20.53;66.08
65985;HTU21D;52748;51.112;5.880;2023-04-24T12:03:49;20.55;66.23
65985;HTU21D;52748;51.112;5.880;2023-04-24T12:06:17;20.56;66.24
65985;HTU21D;52748;51.112;5.880;2023-04-24T12:08:46;20.58;66.04
65985;HTU21D;52748;51.112;5.880;2023-04-24T12:11:16;20.60;65.95
65985;HTU21D;52748;51.112;5.880;2023-04-24T12:13:43;20.60;66.07
65985;HTU21D;52748;51.112;5.880;2023-04-24T12:16:10;20.58;66.40
65985;HTU21D;52748;51.112;5.880;2023-04-24T12:18:42;20.58;66.74
65985;HTU21D;52748;51.112;5.880;2023-04-24T12:21:21;20.58;66.90
65985;HTU21D;52748;51.112;5.880;2023-04-24T12:23:48;20.59;66.91
65985;HTU21D;52748;51.112;5.880;2023-04-24T12:26:18;20.61;66.72
65985;HTU21D;52748;51.112;5.880;2023-04-24T12:28:47;20.62;66.52
65985;HTU21D;52748;51.112;5.880;2023-04-24T12:31:15;20.61;66.71
65985;HTU21D;52748;51.112;5.880;2023-04-24T12:33:41;20.63;66.85
65985;HTU21D;52748;51.112;5.880;2023-04-24T12:36:12;20.63;66.92
65985;HTU21D;52748;51.112;5.880;2023-04-24T12:38:39;20.68;66.75
65985;HTU21D;52748;51.112;5.880;2023-04-24T12:41:12;20.70;66.75
65985;HTU21D;52748;51.112;5.880;2023-04-24T12:43:38;20.72;66.67
65985;HTU21D;52748;51.112;5.880;2023-04-24T12:46:04;20.75;66.34
65985;HTU21D;52748;51.112;5.880;2023-04-24T12:48:30;20.77;66.15
65985;HTU21D;52748;51.112;5.880;2023-04-24T12:50:58;20.79;66.08
65985;HTU21D;52748;51.112;5.880;2023-04-24T12:53:28;20.78;66.15
65985;HTU21D;52748;51.112;5.880;2023-04-24T12:55:55;20.79;66.20
65985;HTU21D;52748;51.112;5.880;2023-04-24T12:58:22;20.78;66.24
65985;HTU21D;52748;51.112;5.880;2023-04-24T13:00:48;20.81;66.20
65985;HTU21D;52748;51.112;5.880;2023-04-24T13:03:14;20.81;66.11
65985;HTU21D;52748;51.112;5.880;2023-04-24T13:05:42;20.81;66.14
65985;HTU21D;52748;51.112;5.880;2023-04-24T13:08:08;20.83;66.14
65985;HTU21D;52748;51.112;5.880;2023-04-24T13:10:34;20.84;63.78
65985;HTU21D;52748;51.112;5.880;2023-04-24T13:13:00;20.83;61.02
65985;HTU21D;52748;51.112;5.880;2023-04-24T13:15:26;20.78;61.69
65985;HTU21D;52748;51.112;5.880;2023-04-24T13:17:52;20.78;62.64
65985;HTU21D;52748;51.112;5.880;2023-04-24T13:20:18;20.78;63.04
65985;HTU21D;52748;51.112;5.880;2023-04-24T13:22:44;20.79;63.51
65985;HTU21D;52748;51.112;5.880;2023-04-24T13:25:09;20.80;63.77
65985;HTU21D;52748;51.112;5.880;2023-04-24T13:27:38;20.81;63.89
65985;HTU21D;52748;51.112;5.880;2023-04-24T13:30:04;20.86;63.92
65985;HTU21D;52748;51.112;5.880;2023-04-24T13:32:30;20.89;63.81
65985;HTU21D;52748;51.112;5.880;2023-04-24T13:34:56;20.91;63.85
65985;HTU21D;52748;51.112;5.880;2023-04-24T13:37:22;20.94;63.78
65985;HTU21D;52748;51.112;5.880;2023-04-24T13:39:48;20.98;63.82
65985;HTU21D;52748;51.112;5.880;2023-04-24T13:42:14;21.00;63.78
65985;HTU21D;52748;51.112;5.880;2023-04-24T13:44:40;21.03;63.72
65985;HTU21D;52748;51.112;5.880;2023-04-24T13:47:05;21.03;63.65
65985;HTU21D;52748;51.112;5.880;2023-04-24T13:49:31;21.07;63.37
65985;HTU21D;52748;51.112;5.880;2023-04-24T13:51:57;21.07;63.13
65985;HTU21D;52748;51.112;5.880;2023-04-24T13:54:23;21.07;63.15
65985;HTU21D;52748;51.112;5.880;2023-04-24T13:56:52;21.08;63.32
65985;HTU21D;52748;51.112;5.880;2023-04-24T13:59:19;21.10;63.09
65985;HTU21D;52748;51.112;5.880;2023-04-24T14:01:45;21.08;62.89
65985;HTU21D;52748;51.112;5.880;2023-04-24T14:04:11;21.08;62.78
65985;HTU21D;52748;51.112;5.880;2023-04-24T14:06:37;21.09;62.72
65985;HTU21D;52748;51.112;5.880;2023-04-24T14:09:03;21.10;62.53
65985;HTU21D;52748;51.112;5.880;2023-04-24T14:11:29;21.11;62.47
65985;HTU21D;52748;51.112;5.880;2023-04-24T14:13:55;21.13;61.87
65985;HTU21D;52748;51.112;5.880;2023-04-24T14:16:24;21.08;60.17
65985;HTU21D;52748;51.112;5.880;2023-04-24T14:18:50;21.03;61.24
65985;HTU21D;52748;51.112;5.880;2023-04-24T14:21:16;20.99;62.03
65985;HTU21D;52748;51.112;5.880;2023-04-24T14:23:42;20.94;62.54
65985;HTU21D;52748;51.112;5.880;2023-04-24T14:26:07;20.91;61.37
65985;HTU21D;52748;51.112;5.880;2023-04-24T14:28:33;20.88;62.02
65985;HTU21D;52748;51.112;5.880;2023-04-24T14:30:59;20.86;62.50
65985;HTU21D;52748;51.112;5.880;2023-04-24T14:33:25;20.81;62.88
65985;HTU21D;52748;51.112;5.880;2023-04-24T14:35:51;20.80;63.21
65985;HTU21D;52748;51.112;5.880;2023-04-24T14:38:17;20.78;63.52
65985;HTU21D;52748;51.112;5.880;2023-04-24T14:40:42;20.79;63.76
65985;HTU21D;52748;51.112;5.880;2023-04-24T14:43:08;20.80;63.72
65985;HTU21D;52748;51.112;5.880;2023-04-24T14:45:34;20.78;63.94
65985;HTU21D;52748;51.112;5.880;2023-04-24T14:48:00;20.78;64.14
65985;HTU21D;52748;51.112;5.880;2023-04-24T14:50:26;20.80;64.16
65985;HTU21D;52748;51.112;5.880;2023-04-24T14:52:55;20.83;64.15
65985;HTU21D;52748;51.112;5.880;2023-04-24T14:55:25;20.86;64.17
65985;HTU21D;52748;51.112;5.880;2023-04-24T14:57:52;20.85;64.30
65985;HTU21D;52748;51.112;5.880;2023-04-24T15:00:18;20.85;64.33
65985;HTU21D;52748;51.112;5.880;2023-04-24T15:02:45;20.85;64.50
65985;HTU21D;52748;51.112;5.880;2023-04-24T15:05:11;20.81;64.66
65985;HTU21D;52748;51.112;5.880;2023-04-24T15:07:38;20.81;64.85
65985;HTU21D;52748;51.112;5.880;2023-04-24T15:10:04;20.81;65.04
65985;HTU21D;52748;51.112;5.880;2023-04-24T15:12:31;20.80;65.09
65985;HTU21D;52748;51.112;5.880;2023-04-24T15:14:58;20.81;65.15
65985;HTU21D;52748;51.112;5.880;2023-04-24T15:17:24;20.81;65.21
65985;HTU21D;52748;51.112;5.880;2023-04-24T15:19:50;20.81;65.32
65985;HTU21D;52748;51.112;5.880;2023-04-24T15:22:16;20.81;65.26
65985;HTU21D;52748;51.112;5.880;2023-04-24T15:24:41;20.86;65.10
65985;HTU21D;52748;51.112;5.880;2023-04-24T15:27:10;20.87;64.84
65985;HTU21D;52748;51.112;5.880;2023-04-24T15:29:36;20.89;64.63